createdAt,value
2018-04-08T00:00:06.100Z,58.18
2018-04-08T00:02:34.618Z,58.38
2018-04-08T00:05:05.958Z,58.15
2018-04-08T00:07:34.478Z,58.79
2018-04-08T00:10:05.941Z,59.02
2018-04-08T00:12:34.253Z,59.60
2018-04-08T00:15:05.556Z,60.34
2018-04-08T00:17:34.015Z,60.35
2018-04-08T00:20:05.942Z,60.42
2018-04-08T00:22:34.213Z,60.00
2018-04-08T00:25:05.666Z,60.22
2018-04-08T00:27:33.947Z,59.75
2018-04-08T00:30:07.784Z,58.39
2018-04-08T00:32:36.074Z,59.08
2018-04-08T00:35:08.090Z,58.84
2018-04-08T00:37:36.367Z,59.72
2018-04-08T00:40:06.492Z,59.64
2018-04-08T00:42:34.773Z,60.02
2018-04-08T00:45:06.186Z,59.22
2018-04-08T00:47:34.850Z,58.90
2018-04-08T00:50:06.879Z,59.24
2018-04-08T00:52:35.134Z,59.25
2018-04-08T00:55:07.052Z,59.64
2018-04-08T00:57:35.865Z,59.56
2018-04-08T01:00:07.515Z,60.71
2018-04-08T01:02:35.804Z,60.40
2018-04-08T01:05:07.782Z,59.14
2018-04-08T01:07:36.057Z,59.14
2018-04-08T01:10:06.212Z,60.26
2018-04-08T01:12:34.574Z,60.96
2018-04-08T01:15:09.579Z,60.34
2018-04-08T01:17:37.880Z,59.63
2018-04-08T01:20:06.186Z,59.82
2018-04-08T01:22:34.748Z,59.52
2018-04-08T01:25:08.725Z,60.36
2018-04-08T01:27:37.117Z,59.80
2018-04-08T01:30:06.429Z,60.13
2018-04-08T01:32:34.992Z,59.37
2018-04-08T01:35:07.048Z,58.68
2018-04-08T01:37:35.333Z,58.41
2018-04-08T01:40:07.187Z,58.01
2018-04-08T01:42:35.456Z,57.87
2018-04-08T01:45:07.574Z,56.88
2018-04-08T01:47:35.928Z,55.98
2018-04-08T01:50:07.875Z,55.46
2018-04-08T01:52:36.209Z,55.27
2018-04-08T01:55:08.023Z,55.10
2018-04-08T01:57:36.313Z,54.80
2018-04-08T02:00:06.325Z,54.46
2018-04-08T02:02:34.622Z,54.98
2018-04-08T02:05:10.487Z,53.86
2018-04-08T02:07:38.785Z,54.54
2018-04-08T02:10:07.080Z,53.99
2018-04-08T02:12:35.351Z,54.54
2018-04-08T02:15:06.603Z,54.20
2018-04-08T02:17:34.902Z,53.83
2018-04-08T02:20:07.045Z,53.12
2018-04-08T02:22:35.346Z,53.92
2018-04-08T02:25:06.716Z,53.24
2018-04-08T02:27:34.988Z,54.24
2018-04-08T02:30:06.488Z,53.30
2018-04-08T02:32:35.587Z,52.32
2018-04-08T02:35:07.747Z,52.71
2018-04-08T02:37:36.284Z,52.92
2018-04-08T02:40:06.418Z,53.25
2018-04-08T02:42:34.706Z,53.50
2018-04-08T02:45:09.847Z,53.61
2018-04-08T02:47:38.267Z,53.24
2018-04-08T02:50:06.569Z,53.40
2018-04-08T02:52:34.842Z,53.91
2018-04-08T02:55:06.132Z,54.37
2018-04-08T02:57:34.793Z,54.33
2018-04-08T03:00:06.309Z,54.70
2018-04-08T03:02:34.611Z,54.41
2018-04-08T03:05:07.980Z,54.57
2018-04-08T03:07:36.280Z,54.59
2018-04-08T03:10:06.349Z,55.05
2018-04-08T03:12:34.677Z,55.35
2018-04-08T03:15:09.775Z,55.19
2018-04-08T03:17:38.348Z,55.03
2018-04-08T03:20:06.629Z,55.43
2018-04-08T03:22:34.918Z,56.80
2018-04-08T03:25:06.596Z,56.84
2018-04-08T03:27:39.048Z,57.84
2018-04-08T03:30:07.337Z,57.36
2018-04-08T03:32:35.652Z,57.67
2018-04-08T03:35:07.141Z,57.86
2018-04-08T03:37:35.560Z,58.04
2018-04-08T03:40:07.576Z,58.35
2018-04-08T03:42:35.884Z,58.92
2018-04-08T03:45:07.707Z,58.20
2018-04-08T03:47:35.980Z,58.73
2018-04-08T03:50:07.996Z,58.78
2018-04-08T03:52:36.268Z,58.99
2018-04-08T03:55:06.415Z,59.89
2018-04-08T03:57:35.208Z,59.28
2018-04-08T04:00:06.477Z,59.82
2018-04-08T04:02:34.788Z,59.48
2018-04-08T04:05:06.228Z,59.48
2018-04-08T04:07:34.527Z,60.08
2018-04-08T04:10:10.681Z,57.75
2018-04-08T04:12:38.970Z,57.01
2018-04-08T04:15:07.260Z,58.89
2018-04-08T04:17:35.551Z,58.83
2018-04-08T04:20:19.074Z,60.17
2018-04-08T04:22:58.981Z,59.96
2018-04-08T04:28:30.347Z,59.22
2018-04-08T04:30:58.884Z,59.07
2018-04-08T04:33:27.191Z,58.72
2018-04-08T04:35:55.513Z,58.31
2018-04-08T04:38:23.792Z,58.00
2018-04-08T04:40:52.408Z,58.12
2018-04-08T04:43:21.298Z,58.39
2018-04-08T04:45:49.569Z,58.73
2018-04-08T04:48:17.854Z,59.02
2018-04-08T04:50:46.153Z,59.26
2018-04-08T04:53:14.457Z,59.77
2018-04-08T04:55:42.741Z,59.43
2018-04-08T04:58:11.048Z,59.60
2018-04-08T05:00:39.400Z,59.64
2018-04-08T05:03:07.677Z,60.11
2018-04-08T05:05:36.012Z,60.33
2018-04-08T05:08:04.845Z,58.87
2018-04-08T05:10:33.464Z,59.30
2018-04-08T05:13:02.086Z,57.78
2018-04-08T05:15:30.653Z,56.92
2018-04-08T05:17:58.673Z,56.63
2018-04-08T05:20:26.725Z,56.22
2018-04-08T05:23:01.156Z,56.90
2018-04-08T05:25:35.435Z,57.81
2018-04-08T05:28:03.699Z,55.89
2018-04-08T05:30:31.663Z,56.45
2018-04-08T05:32:59.689Z,54.00
2018-04-08T05:35:27.739Z,55.40
2018-04-08T05:37:55.785Z,53.43
2018-04-08T05:40:23.816Z,54.15
2018-04-08T05:42:52.370Z,56.34
2018-04-08T05:45:20.896Z,55.66
2018-04-08T05:47:49.009Z,56.85
2018-04-08T05:50:17.634Z,58.54
2018-04-08T05:52:46.582Z,59.97
2018-04-08T05:55:15.351Z,59.75
2018-04-08T05:57:43.405Z,59.20
2018-04-08T06:00:11.437Z,57.66
2018-04-08T06:02:39.444Z,57.76
2018-04-08T06:05:07.754Z,58.92
2018-04-08T06:07:36.157Z,59.29
2018-04-08T06:10:05.507Z,59.65
2018-04-08T06:12:33.531Z,58.17
2018-04-08T06:15:08.016Z,56.84
2018-04-08T06:17:36.029Z,56.98
2018-04-08T06:20:06.189Z,56.65
2018-04-08T06:22:34.416Z,55.47
2018-04-08T06:25:05.801Z,55.65
2018-04-08T06:27:33.792Z,55.24
2018-04-08T06:30:08.448Z,51.98
2018-04-08T06:32:36.723Z,51.15
2018-04-08T06:35:06.337Z,51.20
2018-04-08T06:37:34.515Z,49.65
2018-04-08T06:40:05.755Z,48.66
2018-04-08T06:42:33.779Z,47.37
2018-04-08T06:45:05.387Z,47.98
2018-04-08T06:47:33.637Z,46.59
2018-04-08T06:50:05.220Z,46.57
2018-04-08T06:52:33.523Z,45.29
2018-04-08T06:55:07.944Z,44.51
2018-04-08T06:57:35.952Z,43.55
2018-04-08T07:00:07.567Z,43.00
2018-04-08T07:02:35.850Z,40.58
2018-04-08T07:05:05.716Z,40.87
2018-04-08T07:07:33.850Z,40.80
2018-04-08T07:10:08.559Z,42.39
2018-04-08T07:12:36.574Z,40.96
2018-04-08T07:15:05.710Z,41.63
2018-04-08T07:17:34.144Z,41.09
2018-04-08T07:20:05.458Z,41.17
2018-04-08T07:22:33.550Z,39.82
2018-04-08T07:25:04.655Z,39.40
2018-04-08T07:27:32.771Z,39.57
2018-04-08T07:30:04.078Z,39.25
2018-04-08T07:32:32.115Z,40.71
2018-04-08T07:35:00.134Z,41.29
2018-04-08T07:37:31.808Z,40.82
2018-04-08T07:39:59.885Z,42.64
2018-04-08T07:42:33.569Z,41.24
2018-04-08T07:45:04.799Z,41.05
2018-04-08T07:47:32.931Z,41.09
2018-04-08T07:50:05.605Z,41.20
2018-04-08T07:52:33.852Z,41.19
2018-04-08T07:55:05.041Z,40.97
2018-04-08T07:57:33.415Z,41.24
2018-04-08T08:00:07.946Z,40.69
2018-04-08T08:02:35.948Z,39.99
2018-04-08T08:05:07.605Z,40.55
2018-04-08T08:07:35.610Z,40.02
2018-04-08T08:10:07.346Z,40.28
2018-04-08T08:12:35.484Z,38.33
2018-04-08T08:15:07.072Z,37.93
2018-04-08T08:17:35.130Z,38.17
2018-04-08T08:20:06.770Z,38.24
2018-04-08T08:22:35.492Z,37.71
2018-04-08T08:25:07.836Z,38.54
2018-04-08T08:27:35.867Z,37.67
2018-04-08T08:30:07.887Z,38.73
2018-04-08T08:32:36.136Z,37.11
2018-04-08T08:35:09.039Z,35.92
2018-04-08T08:37:37.058Z,35.01
2018-04-08T08:40:06.613Z,35.16
2018-04-08T08:42:34.637Z,34.99
2018-04-08T08:45:06.566Z,33.54
2018-04-08T08:47:35.659Z,34.91
2018-04-08T08:50:06.881Z,36.12
2018-04-08T08:52:35.151Z,33.34
2018-04-08T08:55:05.959Z,32.00
2018-04-08T08:57:34.923Z,31.83
2018-04-08T09:00:06.099Z,32.14
2018-04-08T09:02:34.872Z,31.74
2018-04-08T09:05:06.509Z,31.89
2018-04-08T09:07:34.543Z,31.06
2018-04-08T09:10:05.684Z,30.38
2018-04-08T09:12:33.717Z,29.87
2018-04-08T09:15:08.649Z,30.24
2018-04-08T09:17:36.648Z,29.86
2018-04-08T09:20:06.881Z,30.16
2018-04-08T09:22:36.845Z,30.81
2018-04-08T09:25:06.259Z,29.28
2018-04-08T09:27:34.377Z,29.60
2018-04-08T09:30:08.137Z,29.62
2018-04-08T09:32:36.690Z,29.20
2018-04-08T09:35:08.095Z,31.10
2018-04-08T09:37:36.209Z,28.61
2018-04-08T09:40:08.233Z,28.10
2018-04-08T09:42:36.270Z,28.40
2018-04-08T09:45:09.120Z,25.67
2018-04-08T09:47:37.375Z,26.64
2018-04-08T09:50:06.525Z,27.75
2018-04-08T09:52:34.620Z,27.94
2018-04-08T09:55:05.771Z,25.01
2018-04-08T09:57:35.229Z,23.89
2018-04-08T10:00:07.180Z,23.10
2018-04-08T10:02:38.043Z,24.03
2018-04-08T10:05:06.836Z,24.21
2018-04-08T10:07:34.857Z,27.29
2018-04-08T10:10:05.942Z,26.89
2018-04-08T10:12:34.010Z,23.52
2018-04-08T10:15:05.588Z,23.42
2018-04-08T10:17:33.875Z,25.28
2018-04-08T10:20:08.365Z,24.41
2018-04-08T10:22:36.436Z,26.63
2018-04-08T10:25:08.131Z,25.99
2018-04-08T10:27:36.525Z,25.60
2018-04-08T10:30:07.715Z,24.99
2018-04-08T10:32:35.998Z,25.10
2018-04-08T10:35:07.002Z,25.65
2018-04-08T10:37:35.034Z,25.76
2018-04-08T10:40:05.925Z,24.85
2018-04-08T10:42:34.138Z,26.85
2018-04-08T10:45:08.902Z,26.70
2018-04-08T10:47:36.940Z,27.31
2018-04-08T10:50:08.232Z,26.26
2018-04-08T10:52:36.331Z,25.03
2018-04-08T10:55:08.069Z,24.92
2018-04-08T10:57:36.088Z,26.42
2018-04-08T11:00:07.800Z,29.06
2018-04-08T11:02:35.822Z,28.52
2018-04-08T11:05:07.151Z,26.18
2018-04-08T11:07:35.187Z,25.37
2018-04-08T11:10:06.674Z,25.71
2018-04-08T11:12:34.690Z,27.89
2018-04-08T11:15:09.609Z,25.84
2018-04-08T11:17:37.712Z,25.34
2018-04-08T11:20:06.940Z,25.67
2018-04-08T11:22:35.024Z,25.12
2018-04-08T11:25:06.276Z,25.09
2018-04-08T11:27:34.315Z,24.65
2018-04-08T11:30:08.938Z,24.30
2018-04-08T11:32:36.997Z,23.16
2018-04-08T11:35:06.736Z,26.56
2018-04-08T11:37:34.775Z,25.11
2018-04-08T11:40:06.209Z,26.16
2018-04-08T11:42:34.285Z,23.17
2018-04-08T11:45:08.811Z,22.29
2018-04-08T11:47:37.104Z,23.51
2018-04-08T11:50:06.853Z,25.96
2018-04-08T11:52:34.921Z,24.31
2018-04-08T11:55:06.081Z,24.47
2018-04-08T11:57:34.151Z,26.62
2018-04-08T12:00:07.657Z,25.78
2018-04-08T12:02:35.680Z,24.78
2018-04-08T12:05:06.938Z,24.70
2018-04-08T12:07:34.992Z,24.08
2018-04-08T12:10:07.630Z,24.56
2018-04-08T12:12:35.662Z,22.53
2018-04-08T12:15:07.423Z,23.85
2018-04-08T12:17:35.620Z,24.51
2018-04-08T12:20:07.197Z,27.54
2018-04-08T12:22:35.252Z,25.21
2018-04-08T12:25:07.182Z,24.67
2018-04-08T12:27:35.194Z,23.86
2018-04-08T12:30:06.594Z,25.15
2018-04-08T12:32:34.612Z,26.96
2018-04-08T12:35:05.814Z,26.72
2018-04-08T12:37:33.986Z,26.41
2018-04-08T12:40:05.100Z,25.09
2018-04-08T12:42:33.271Z,26.58
2018-04-08T12:45:04.970Z,26.01
2018-04-08T12:47:33.003Z,27.09
2018-04-08T12:50:05.748Z,26.27
2018-04-08T12:52:33.777Z,26.35
2018-04-08T12:55:05.781Z,26.70
2018-04-08T12:57:33.916Z,26.50
2018-04-08T13:00:08.267Z,26.22
2018-04-08T13:02:36.326Z,25.39
2018-04-08T13:05:08.005Z,26.46
2018-04-08T13:07:36.053Z,26.47
2018-04-08T13:10:07.016Z,26.52
2018-04-08T13:12:35.062Z,27.44
2018-04-08T13:15:07.210Z,26.75
2018-04-08T13:17:35.268Z,26.58
2018-04-08T13:20:06.455Z,27.22
2018-04-08T13:22:34.722Z,26.62
2018-04-08T13:25:05.988Z,26.04
2018-04-08T13:27:34.017Z,25.86
2018-04-08T13:32:34.741Z,26.81
2018-04-08T13:35:09.908Z,25.50
2018-04-08T13:37:37.967Z,26.42
2018-04-08T13:40:07.320Z,26.44
2018-04-08T13:42:35.374Z,24.97
2018-04-08T13:45:06.748Z,25.92
2018-04-08T13:47:34.793Z,26.53
2018-04-08T13:50:05.953Z,27.12
2018-04-08T13:52:33.985Z,25.94
2018-04-08T13:55:08.693Z,26.94
2018-04-08T13:57:36.682Z,26.60
2018-04-08T14:00:06.101Z,26.24
2018-04-08T14:02:34.282Z,26.31
2018-04-08T14:05:06.113Z,27.05
2018-04-08T14:07:34.155Z,25.53
2018-04-08T14:10:08.532Z,24.60
2018-04-08T14:12:36.625Z,24.09
2018-04-08T14:15:07.823Z,24.71
2018-04-08T14:17:35.848Z,24.33
2018-04-08T14:20:07.507Z,25.42
2018-04-08T14:22:35.539Z,25.73
2018-04-08T14:25:06.049Z,25.50
2018-04-08T14:27:34.105Z,25.43
2018-04-08T14:30:08.945Z,24.75
2018-04-08T14:32:37.019Z,24.48
2018-04-08T14:35:06.529Z,25.93
2018-04-08T14:37:34.904Z,25.86
2018-04-08T14:40:05.881Z,25.83
2018-04-08T14:42:33.905Z,25.83
2018-04-08T14:45:07.577Z,25.90
2018-04-08T14:47:35.584Z,26.26
2018-04-08T14:50:06.926Z,26.42
2018-04-08T14:52:34.978Z,26.85
2018-04-08T14:55:06.258Z,26.23
2018-04-08T14:57:34.308Z,25.96
2018-04-08T15:00:05.567Z,25.26
2018-04-08T15:02:34.458Z,26.07
2018-04-08T15:05:06.890Z,25.76
2018-04-08T15:07:35.352Z,25.49
2018-04-08T15:10:06.338Z,25.48
2018-04-08T15:12:34.377Z,25.60
2018-04-08T15:15:06.276Z,25.45
2018-04-08T15:17:34.333Z,25.58
2018-04-08T15:20:06.306Z,24.88
2018-04-08T15:22:34.431Z,24.93
2018-04-08T15:25:05.894Z,25.04
2018-04-08T15:27:33.926Z,25.26
2018-04-08T15:30:08.444Z,24.99
2018-04-08T15:32:36.542Z,25.30
2018-04-08T15:35:07.537Z,26.15
2018-04-08T15:37:35.564Z,25.17
2018-04-08T15:40:07.223Z,24.66
2018-04-08T15:42:35.288Z,24.86
2018-04-08T15:45:09.053Z,25.80
2018-04-08T15:47:37.083Z,25.18
2018-04-08T15:50:06.656Z,24.59
2018-04-08T15:52:34.656Z,25.24
2018-04-08T15:55:05.817Z,24.01
2018-04-08T15:57:33.859Z,24.04
2018-04-08T16:00:05.471Z,24.24
2018-04-08T16:02:33.602Z,24.39
2018-04-08T16:05:04.894Z,24.71
2018-04-08T16:07:32.901Z,24.20
2018-04-08T16:12:33.411Z,24.31
2018-04-08T16:15:04.768Z,23.98
2018-04-08T16:17:32.719Z,23.77
2018-04-08T16:20:00.753Z,24.34
2018-04-08T16:22:34.725Z,23.78
2018-04-08T16:25:05.973Z,23.24
2018-04-08T16:27:34.025Z,23.88
2018-04-08T16:30:05.713Z,23.95
2018-04-08T16:32:33.740Z,24.30
2018-04-08T16:35:05.164Z,23.53
2018-04-08T16:37:33.177Z,23.72
2018-04-08T16:40:02.812Z,23.24
2018-04-08T16:42:32.418Z,23.98
2018-04-08T16:45:00.475Z,23.25
2018-04-08T16:47:34.336Z,23.33
2018-04-08T16:50:09.028Z,23.92
2018-04-08T16:52:37.125Z,24.37
2018-04-08T16:55:06.469Z,24.12
2018-04-08T16:57:34.511Z,23.47
2018-04-08T17:00:06.027Z,24.11
2018-04-08T17:02:34.718Z,24.17
2018-04-08T17:05:06.791Z,24.23
2018-04-08T17:07:34.829Z,24.17
2018-04-08T17:10:06.169Z,23.78
2018-04-08T17:12:35.714Z,24.54
2018-04-08T17:15:06.845Z,24.42
2018-04-08T17:17:34.879Z,24.54
2018-04-08T17:20:05.950Z,24.95
2018-04-08T17:22:33.991Z,25.12
2018-04-08T17:25:05.326Z,24.70
2018-04-08T17:27:33.361Z,25.01
2018-04-08T17:30:02.981Z,25.50
2018-04-08T17:32:32.616Z,25.90
2018-04-08T17:35:00.637Z,25.96
2018-04-08T17:37:31.788Z,26.11
2018-04-08T17:39:59.821Z,26.52
2018-04-08T17:42:29.400Z,26.73
2018-04-08T17:44:58.090Z,27.15
2018-04-08T17:47:27.441Z,27.22
2018-04-08T17:49:55.527Z,27.81
2018-04-08T17:52:23.541Z,27.84
2018-04-08T17:54:51.617Z,28.65
2018-04-08T17:57:19.579Z,29.06
2018-04-08T17:59:47.605Z,29.78
2018-04-08T18:02:15.620Z,29.97
2018-04-08T18:04:43.638Z,30.35
2018-04-08T18:07:11.752Z,30.62
2018-04-08T18:09:39.758Z,31.03
2018-04-08T18:12:07.879Z,31.21
2018-04-08T18:14:35.913Z,31.34
2018-04-08T18:17:12.730Z,31.60
2018-04-08T18:19:40.767Z,34.20
2018-04-08T18:22:08.816Z,33.00
2018-04-08T18:24:36.854Z,32.82
2018-04-08T18:27:04.922Z,34.53
2018-04-08T18:29:32.950Z,36.13
2018-04-08T18:32:01.064Z,34.88
2018-04-08T18:34:29.094Z,35.71
2018-04-08T18:36:57.198Z,37.22
2018-04-08T18:39:25.871Z,36.32
2018-04-08T18:41:53.940Z,37.87
2018-04-08T18:44:22.572Z,39.96
2018-04-08T18:46:50.622Z,38.97
2018-04-08T18:49:18.660Z,39.85
2018-04-08T18:51:46.753Z,40.08
2018-04-08T18:54:14.810Z,39.12
2018-04-08T18:56:42.897Z,40.55
2018-04-08T18:59:10.914Z,40.34
2018-04-08T19:01:38.940Z,40.53
2018-04-08T19:04:06.973Z,41.17
2018-04-08T19:06:34.988Z,41.10
2018-04-08T19:09:04.946Z,41.05
2018-04-08T19:11:32.966Z,40.68
2018-04-08T19:14:01.494Z,41.11
2018-04-08T19:16:29.500Z,41.74
2018-04-08T19:18:57.833Z,41.83
2018-04-08T19:21:25.829Z,42.39
2018-04-08T19:23:53.901Z,42.15
2018-04-08T19:26:21.912Z,43.27
2018-04-08T19:28:49.967Z,42.88
2018-04-08T19:31:18.365Z,41.84
2018-04-08T19:33:46.416Z,40.71
2018-04-08T19:36:14.433Z,42.65
2018-04-08T19:38:42.502Z,43.57
2018-04-08T19:41:10.584Z,43.73
2018-04-08T19:43:42.613Z,44.13
2018-04-08T19:46:10.653Z,44.64
2018-04-08T19:48:38.673Z,45.63
2018-04-08T19:51:06.732Z,45.48
2018-04-08T19:53:34.928Z,44.85
2018-04-08T19:56:03.082Z,44.71
2018-04-08T19:58:31.093Z,45.52
2018-04-08T20:00:59.123Z,45.59
2018-04-08T20:03:27.183Z,46.08
2018-04-08T20:05:55.406Z,46.67
2018-04-08T20:08:23.415Z,47.20
2018-04-08T20:10:51.477Z,48.54
2018-04-08T20:13:19.480Z,48.70
2018-04-08T20:15:47.518Z,49.08
2018-04-08T20:18:15.536Z,49.44
2018-04-08T20:20:43.865Z,49.61
2018-04-08T20:23:12.025Z,50.37
2018-04-08T20:25:40.385Z,50.60
2018-04-08T20:28:08.546Z,49.49
2018-04-08T20:30:36.716Z,49.35
2018-04-08T20:33:04.720Z,49.51
2018-04-08T20:35:32.736Z,50.13
2018-04-08T20:38:00.909Z,50.47
2018-04-08T20:40:28.917Z,50.60
2018-04-08T20:42:56.954Z,50.29
2018-04-08T20:45:24.965Z,50.58
2018-04-08T20:47:52.996Z,50.63
2018-04-08T20:50:20.999Z,51.38
2018-04-08T20:52:49.033Z,52.72
2018-04-08T20:55:17.044Z,52.96
2018-04-08T20:57:45.074Z,52.57
2018-04-08T21:00:13.116Z,52.43
2018-04-08T21:02:41.146Z,52.98
2018-04-08T21:05:09.232Z,52.76
2018-04-08T21:07:37.257Z,52.72
2018-04-08T21:10:06.785Z,51.42
2018-04-08T21:12:34.870Z,52.42
2018-04-08T21:15:09.766Z,51.13
2018-04-08T21:17:37.786Z,50.96
2018-04-08T21:20:06.122Z,50.98
2018-04-08T21:22:34.145Z,50.97
2018-04-08T21:25:08.902Z,51.01
2018-04-08T21:27:36.909Z,50.96
2018-04-08T21:30:06.682Z,50.85
2018-04-08T21:32:34.683Z,50.60
2018-04-08T21:35:05.925Z,49.80
2018-04-08T21:37:33.916Z,50.10
2018-04-08T21:40:08.357Z,49.85
2018-04-08T21:42:36.459Z,49.64
2018-04-08T21:45:08.186Z,49.54
2018-04-08T21:47:36.210Z,49.09
2018-04-08T21:50:07.984Z,49.88
2018-04-08T21:52:35.976Z,50.39
2018-04-08T21:55:07.324Z,50.73
2018-04-08T21:57:35.323Z,52.30
2018-04-08T22:00:06.464Z,53.36
2018-04-08T22:02:35.079Z,54.60
2018-04-08T22:05:06.216Z,55.30
2018-04-08T22:07:34.770Z,54.86
2018-04-08T22:10:06.247Z,53.53
2018-04-08T22:12:34.245Z,53.45
2018-04-08T22:15:05.808Z,52.88
2018-04-08T22:17:34.433Z,52.05
2018-04-08T22:20:05.998Z,51.22
2018-04-08T22:22:34.019Z,51.50
2018-04-08T22:25:05.452Z,51.06
2018-04-08T22:27:33.468Z,49.92
2018-04-08T22:30:04.977Z,49.92
2018-04-08T22:32:32.991Z,50.31
2018-04-08T22:35:01.116Z,51.92
2018-04-08T22:37:32.354Z,51.32
2018-04-08T22:40:00.372Z,52.11
2018-04-08T22:42:28.388Z,52.20
2018-04-08T22:44:56.417Z,52.26
2018-04-08T22:47:24.448Z,53.02
2018-04-08T22:49:52.456Z,53.56
2018-04-08T22:52:20.499Z,53.58
2018-04-08T22:54:48.526Z,54.98
2018-04-08T22:57:16.938Z,55.47
2018-04-08T22:59:44.941Z,55.17
2018-04-08T23:02:13.193Z,55.75
2018-04-08T23:04:41.846Z,56.66
2018-04-08T23:07:09.923Z,57.53
2018-04-08T23:09:37.953Z,58.02
2018-04-08T23:12:05.957Z,58.71
2018-04-08T23:14:33.973Z,58.72
2018-04-08T23:17:02.019Z,58.07
2018-04-08T23:19:30.054Z,58.63
2018-04-08T23:21:58.063Z,59.11
2018-04-08T23:24:26.098Z,59.19
2018-04-08T23:26:54.105Z,59.65
2018-04-08T23:29:22.123Z,59.95
2018-04-08T23:31:50.120Z,60.25
2018-04-08T23:34:18.144Z,60.70
2018-04-08T23:36:46.150Z,60.49
2018-04-08T23:39:14.187Z,60.40
2018-04-08T23:41:42.189Z,61.07
2018-04-08T23:44:10.220Z,61.01
2018-04-08T23:46:38.201Z,61.32
2018-04-08T23:49:06.243Z,61.94
2018-04-08T23:51:34.409Z,62.69
2018-04-08T23:54:02.576Z,62.21
2018-04-08T23:56:30.818Z,62.45
2018-04-08T23:58:58.917Z,62.57
